createdAt,value
2019-02-06T00:03:06.407Z,3.28
2019-02-06T00:08:12.381Z,3.17
2019-02-06T00:13:17.599Z,3.15
2019-02-06T00:18:23.403Z,3.18
2019-02-06T00:23:29.206Z,3.23
2019-02-06T00:28:34.890Z,3.28
2019-02-06T00:33:40.402Z,3.30
2019-02-06T00:38:45.808Z,3.30
2019-02-06T00:43:51.173Z,3.32
2019-02-06T00:48:56.752Z,3.39
2019-02-06T00:54:01.998Z,3.43
2019-02-06T00:59:08.202Z,3.40
2019-02-06T01:04:13.735Z,3.40
2019-02-06T01:09:19.404Z,3.37
2019-02-06T01:14:24.860Z,3.28
2019-02-06T01:19:30.099Z,3.26
2019-02-06T01:24:35.437Z,3.32
2019-02-06T01:29:41.057Z,3.26
2019-02-06T01:34:46.713Z,3.29
2019-02-06T01:39:51.966Z,3.28
2019-02-06T01:44:57.241Z,3.32
2019-02-06T01:50:02.583Z,3.37
2019-02-06T01:55:13.579Z,3.29
2019-02-06T02:00:21.345Z,3.29
2019-02-06T02:05:27.447Z,3.19
2019-02-06T02:10:33.029Z,3.18
2019-02-06T02:15:38.801Z,3.18
2019-02-06T02:20:44.360Z,3.22
2019-02-06T02:25:50.032Z,3.26
2019-02-06T02:30:55.957Z,3.30
2019-02-06T02:36:14.295Z,3.37
2019-02-06T02:41:08.365Z,3.37
2019-02-06T02:46:13.916Z,3.28
2019-02-06T02:51:19.597Z,3.24
2019-02-06T02:56:25.109Z,3.11
2019-02-06T03:01:36.222Z,2.97
2019-02-06T03:06:43.447Z,2.94
2019-02-06T03:11:50.005Z,2.97
2019-02-06T03:16:55.589Z,2.98
2019-02-06T03:22:00.947Z,2.98
2019-02-06T03:27:06.165Z,2.98
2019-02-06T03:32:11.412Z,3.00
2019-02-06T03:37:16.559Z,2.98
2019-02-06T03:42:22.141Z,2.98
2019-02-06T03:47:27.645Z,3.04
2019-02-06T03:52:33.523Z,3.06
2019-02-06T03:57:39.693Z,3.10
2019-02-06T04:02:45.050Z,3.13
2019-02-06T04:07:50.233Z,3.22
2019-02-06T04:12:55.904Z,3.25
2019-02-06T04:18:01.280Z,3.25
2019-02-06T04:23:06.692Z,3.30
2019-02-06T04:28:12.562Z,3.32
2019-02-06T04:33:17.932Z,3.32
2019-02-06T04:38:23.582Z,3.41
2019-02-06T04:43:29.234Z,3.42
2019-02-06T04:48:34.614Z,3.45
2019-02-06T04:53:40.283Z,3.46
2019-02-06T04:58:45.833Z,3.47
2019-02-06T05:03:52.342Z,3.51
2019-02-06T05:08:57.773Z,3.57
2019-02-06T05:14:03.179Z,3.61
2019-02-06T05:19:08.625Z,3.61
2019-02-06T05:24:14.167Z,3.57
2019-02-06T05:29:19.629Z,3.65
2019-02-06T05:34:24.890Z,3.68
2019-02-06T05:39:30.246Z,3.75
2019-02-06T05:44:35.399Z,3.82
2019-02-06T05:49:40.784Z,3.77
2019-02-06T05:54:46.319Z,3.59
2019-02-06T05:59:51.564Z,3.52
2019-02-06T06:04:57.081Z,3.41
2019-02-06T06:10:02.400Z,3.37
2019-02-06T06:15:09.418Z,3.51
2019-02-06T06:20:17.516Z,3.58
2019-02-06T06:25:22.878Z,3.63
2019-02-06T06:30:28.058Z,3.64
2019-02-06T06:35:33.762Z,3.73
2019-02-06T06:40:39.293Z,3.64
2019-02-06T06:45:44.667Z,3.61
2019-02-06T06:50:50.186Z,3.63
2019-02-06T06:55:55.850Z,3.60
2019-02-06T07:01:01.319Z,3.49
2019-02-06T07:06:07.083Z,3.35
2019-02-06T07:11:12.545Z,3.34
2019-02-06T07:16:17.797Z,3.26
2019-02-06T07:21:23.140Z,3.22
2019-02-06T07:26:28.730Z,3.24
2019-02-06T07:31:34.752Z,3.16
2019-02-06T07:36:40.138Z,3.41
2019-02-06T07:41:45.930Z,3.52
2019-02-06T07:46:51.585Z,3.51
2019-02-06T07:51:56.846Z,3.62
2019-02-06T07:57:02.730Z,3.77
2019-02-06T08:02:08.277Z,3.84
2019-02-06T08:07:13.636Z,4.04
2019-02-06T08:12:19.826Z,4.30
2019-02-06T08:17:25.727Z,4.13
2019-02-06T08:22:31.192Z,4.27
2019-02-06T08:27:36.572Z,4.45
2019-02-06T08:32:41.760Z,4.56
2019-02-06T08:37:47.432Z,4.83
2019-02-06T08:42:52.993Z,4.91
2019-02-06T08:47:58.371Z,4.80
2019-02-06T08:53:04.735Z,4.81
2019-02-06T08:58:10.100Z,4.89
2019-02-06T09:03:15.765Z,4.60
2019-02-06T09:08:21.490Z,4.50
2019-02-06T09:13:26.892Z,4.51
2019-02-06T09:18:32.354Z,4.72
2019-02-06T09:23:37.818Z,4.57
2019-02-06T09:28:43.473Z,4.43
2019-02-06T09:33:48.840Z,4.26
2019-02-06T09:38:54.086Z,4.31
2019-02-06T09:43:59.340Z,4.42
2019-02-06T09:49:05.016Z,4.67
2019-02-06T09:54:11.210Z,4.77
2019-02-06T09:59:16.554Z,4.72
2019-02-06T10:04:21.910Z,4.72
2019-02-06T10:09:27.307Z,5.00
2019-02-06T10:14:32.825Z,5.23
2019-02-06T10:19:38.372Z,5.11
2019-02-06T10:24:43.858Z,5.07
2019-02-06T10:29:49.627Z,5.07
2019-02-06T10:34:55.299Z,5.03
2019-02-06T10:40:00.684Z,4.97
2019-02-06T10:45:09.133Z,4.93
2019-02-06T10:50:27.444Z,5.11
2019-02-06T10:55:32.913Z,5.19
2019-02-06T11:00:47.262Z,5.22
2019-02-06T11:05:52.723Z,5.37
2019-02-06T11:10:58.196Z,5.47
2019-02-06T11:16:03.762Z,5.33
2019-02-06T11:21:09.039Z,5.11
2019-02-06T11:26:14.989Z,5.30
2019-02-06T11:31:22.085Z,5.47
2019-02-06T11:36:28.061Z,5.53
2019-02-06T11:41:34.763Z,5.49
2019-02-06T11:46:40.463Z,5.47
2019-02-06T11:51:46.101Z,5.51
2019-02-06T11:56:51.334Z,5.42
2019-02-06T12:01:56.832Z,5.45
2019-02-06T12:07:02.359Z,5.68
2019-02-06T12:12:07.930Z,5.57
2019-02-06T12:17:13.394Z,5.31
2019-02-06T12:22:20.118Z,5.20
2019-02-06T12:27:25.444Z,5.41
2019-02-06T12:32:31.008Z,5.86
2019-02-06T12:37:36.970Z,5.76
2019-02-06T12:42:42.638Z,6.00
2019-02-06T12:47:48.106Z,6.16
2019-02-06T12:52:57.091Z,6.47
2019-02-06T12:58:01.293Z,6.35
2019-02-06T13:03:06.900Z,6.57
2019-02-06T13:08:12.516Z,6.17
2019-02-06T13:13:18.698Z,6.19
2019-02-06T13:18:24.515Z,6.10
2019-02-06T13:23:30.435Z,6.11
2019-02-06T13:28:35.967Z,5.90
2019-02-06T13:33:41.247Z,5.78
2019-02-06T13:38:46.601Z,5.86
2019-02-06T13:43:51.967Z,5.86
2019-02-06T13:48:57.522Z,5.79
2019-02-06T13:54:03.319Z,5.86
2019-02-06T13:59:08.757Z,5.85
2019-02-06T14:04:14.119Z,5.82
2019-02-06T14:09:22.828Z,5.97
2019-02-06T14:14:27.183Z,5.94
2019-02-06T14:19:32.664Z,5.75
2019-02-06T14:24:40.983Z,5.87
2019-02-06T14:30:20.768Z,5.89
2019-02-06T14:35:32.195Z,5.75
2019-02-06T14:40:49.503Z,5.60
2019-02-06T14:46:09.452Z,5.42
2019-02-06T14:51:24.127Z,5.39
2019-02-06T14:56:38.415Z,5.35
2019-02-06T15:01:52.589Z,5.32
2019-02-06T15:07:03.446Z,5.31
2019-02-06T15:12:37.625Z,5.35
2019-02-06T15:17:51.469Z,5.31
2019-02-06T15:23:12.109Z,5.32
2019-02-06T15:28:30.228Z,5.22
2019-02-06T15:33:41.968Z,5.02
2019-02-06T15:38:52.927Z,4.89
2019-02-06T15:44:13.686Z,4.88
2019-02-06T15:49:31.104Z,4.77
2019-02-06T15:54:56.542Z,4.71
2019-02-06T16:00:27.434Z,4.75
2019-02-06T16:06:01.599Z,4.72
2019-02-06T16:11:19.188Z,4.76
2019-02-06T16:16:45.630Z,4.65
2019-02-06T16:22:00.969Z,4.56
2019-02-06T16:27:15.234Z,4.56
2019-02-06T16:32:46.321Z,4.52
2019-02-06T16:38:04.107Z,4.53
2019-02-06T16:43:32.190Z,4.57
2019-02-06T16:48:46.455Z,4.45
2019-02-06T16:53:57.344Z,4.41
2019-02-06T16:59:30.265Z,4.44
2019-02-06T17:04:50.743Z,4.46
2019-02-06T17:10:22.148Z,4.42
2019-02-06T17:15:47.179Z,4.41
2019-02-06T17:21:01.354Z,4.31
2019-02-06T17:26:15.958Z,4.24
2019-02-06T17:31:43.943Z,4.36
2019-02-06T17:36:54.766Z,4.21
2019-02-06T17:42:16.121Z,4.19
2019-02-06T17:47:42.796Z,4.18
2019-02-06T17:52:59.366Z,4.13
2019-02-06T17:58:06.700Z,4.03
2019-02-06T18:03:15.084Z,4.03
2019-02-06T18:08:20.782Z,4.12
2019-02-06T18:13:26.370Z,4.07
2019-02-06T18:18:32.134Z,4.03
2019-02-06T18:23:37.535Z,3.96
2019-02-06T18:28:43.472Z,4.00
2019-02-06T18:33:49.131Z,3.86
2019-02-06T18:38:54.482Z,3.86
2019-02-06T18:44:00.048Z,3.93
2019-02-06T18:49:06.121Z,3.91
2019-02-06T18:54:11.586Z,3.87
2019-02-06T18:59:16.839Z,3.82
2019-02-06T19:04:22.068Z,3.77
2019-02-06T19:09:28.966Z,3.86
2019-02-06T19:14:34.299Z,3.85
2019-02-06T19:19:39.899Z,3.66
2019-02-06T19:24:45.086Z,3.88
2019-02-06T19:29:51.430Z,3.86
2019-02-06T19:34:56.794Z,3.88
2019-02-06T19:40:02.310Z,3.85
2019-02-06T19:45:13.146Z,3.78
2019-02-06T19:50:27.531Z,3.83
2019-02-06T19:55:32.779Z,3.80
2019-02-06T20:00:38.570Z,3.83
2019-02-06T20:05:44.626Z,3.85
2019-02-06T20:10:52.150Z,3.83
2019-02-06T20:15:57.947Z,3.91
2019-02-06T20:21:03.259Z,3.95
2019-02-06T20:26:09.031Z,3.89
2019-02-06T20:31:14.691Z,3.96
2019-02-06T20:36:20.046Z,3.87
2019-02-06T20:41:25.270Z,3.89
2019-02-06T20:46:30.639Z,3.86
2019-02-06T20:51:37.161Z,3.91
2019-02-06T20:56:42.710Z,3.89
2019-02-06T21:01:47.966Z,3.84
2019-02-06T21:06:53.321Z,3.87
2019-02-06T21:11:58.470Z,3.93
2019-02-06T21:17:04.659Z,3.88
2019-02-06T21:22:10.512Z,3.86
2019-02-06T21:27:17.212Z,3.81
2019-02-06T21:32:22.328Z,3.89
2019-02-06T21:37:27.462Z,3.89
2019-02-06T21:42:32.647Z,3.68
2019-02-06T21:47:38.195Z,3.84
2019-02-06T21:52:44.856Z,3.68
2019-02-06T21:57:51.376Z,3.78
2019-02-06T22:02:57.065Z,3.70
2019-02-06T22:08:02.387Z,3.62
2019-02-06T22:13:07.584Z,3.71
2019-02-06T22:18:12.849Z,3.66
2019-02-06T22:23:18.420Z,3.61
2019-02-06T22:28:23.882Z,3.65
2019-02-06T22:33:29.238Z,3.68
2019-02-06T22:38:34.911Z,3.69
2019-02-06T22:43:40.478Z,3.62
2019-02-06T22:48:45.912Z,3.69
2019-02-06T22:53:51.193Z,3.63
2019-02-06T22:58:56.710Z,3.73
2019-02-06T23:04:02.306Z,3.73
2019-02-06T23:09:08.359Z,3.81
2019-02-06T23:14:17.446Z,3.68
2019-02-06T23:19:20.721Z,3.77
2019-02-06T23:24:26.418Z,3.65
2019-02-06T23:29:32.105Z,3.62
2019-02-06T23:34:37.899Z,3.64
2019-02-06T23:39:43.493Z,3.74
2019-02-06T23:44:48.586Z,3.63
2019-02-06T23:49:53.763Z,3.69
2019-02-06T23:54:58.967Z,3.66
